createdAt,value
2019-01-13T00:02:29.797Z,-0.13
2019-01-13T00:05:01.140Z,-0.15
2019-01-13T00:07:32.396Z,-0.14
2019-01-13T00:10:03.880Z,-0.01
2019-01-13T00:12:35.605Z,0.16
2019-01-13T00:15:07.632Z,0.16
2019-01-13T00:17:39.060Z,-0.07
2019-01-13T00:20:10.637Z,-0.16
2019-01-13T00:22:41.874Z,-0.16
2019-01-13T00:25:13.216Z,-0.21
2019-01-13T00:27:44.246Z,-0.14
2019-01-13T00:30:19.368Z,-0.08
2019-01-13T00:32:48.997Z,0.04
2019-01-13T00:35:20.277Z,-0.07
2019-01-13T00:37:51.497Z,-0.05
2019-01-13T00:40:22.894Z,0.06
2019-01-13T00:42:54.062Z,0.04
2019-01-13T00:45:25.256Z,0.17
2019-01-13T00:47:56.538Z,0.15
2019-01-13T00:50:27.756Z,0.09
2019-01-13T00:52:58.911Z,0.20
2019-01-13T00:55:30.112Z,0.28
2019-01-13T00:58:01.505Z,0.35
2019-01-13T01:00:32.727Z,0.44
2019-01-13T01:03:05.452Z,0.37
2019-01-13T01:05:37.669Z,0.35
2019-01-13T01:08:09.420Z,0.27
2019-01-13T01:10:40.759Z,0.36
2019-01-13T01:13:12.037Z,0.35
2019-01-13T01:15:43.258Z,0.27
2019-01-13T01:18:14.505Z,0.09
2019-01-13T01:20:45.864Z,0.25
2019-01-13T01:23:17.063Z,0.00
2019-01-13T01:25:49.667Z,0.07
2019-01-13T01:28:20.933Z,0.06
2019-01-13T01:30:52.239Z,-0.24
2019-01-13T01:33:26.125Z,-0.01
2019-01-13T01:35:57.531Z,0.16
2019-01-13T01:38:28.842Z,0.29
2019-01-13T01:40:59.996Z,0.38
2019-01-13T01:43:31.268Z,0.41
2019-01-13T01:46:03.737Z,0.44
2019-01-13T01:48:34.870Z,0.56
2019-01-13T01:51:06.183Z,0.55
2019-01-13T01:53:37.278Z,0.48
2019-01-13T01:56:09.842Z,0.42
2019-01-13T01:58:41.144Z,0.46
2019-01-13T02:01:12.414Z,0.44
2019-01-13T02:03:43.568Z,0.50
2019-01-13T02:06:14.865Z,0.54
2019-01-13T02:08:46.155Z,0.59
2019-01-13T02:11:17.428Z,0.61
2019-01-13T02:13:49.534Z,0.65
2019-01-13T02:16:20.796Z,0.75
2019-01-13T02:18:52.173Z,0.85
2019-01-13T02:21:23.319Z,0.88
2019-01-13T02:23:54.504Z,0.74
2019-01-13T02:26:25.892Z,0.50
2019-01-13T02:28:57.151Z,0.30
2019-01-13T02:31:28.431Z,0.45
2019-01-13T02:33:59.726Z,0.59
2019-01-13T02:36:30.890Z,0.64
2019-01-13T02:39:02.146Z,0.36
2019-01-13T02:41:34.880Z,0.25
2019-01-13T02:44:06.375Z,0.43
2019-01-13T02:46:37.672Z,0.37
2019-01-13T02:49:08.686Z,0.49
2019-01-13T02:51:39.996Z,0.56
2019-01-13T02:54:11.213Z,0.63
2019-01-13T02:56:43.999Z,0.72
2019-01-13T02:59:16.341Z,0.64
2019-01-13T03:01:49.086Z,0.57
2019-01-13T03:04:20.196Z,0.65
2019-01-13T03:06:51.286Z,0.73
2019-01-13T03:09:22.714Z,0.67
2019-01-13T03:11:53.967Z,0.69
2019-01-13T03:14:25.274Z,0.83
2019-01-13T03:16:56.560Z,0.89
2019-01-13T03:19:27.728Z,0.95
2019-01-13T03:21:59.270Z,1.06
2019-01-13T03:24:30.659Z,0.75
2019-01-13T03:27:02.022Z,0.29
2019-01-13T03:29:33.256Z,0.38
2019-01-13T03:32:04.703Z,0.60
2019-01-13T03:34:35.900Z,0.78
2019-01-13T03:37:07.223Z,0.73
2019-01-13T03:39:38.586Z,0.57
2019-01-13T03:42:09.939Z,0.72
2019-01-13T03:44:41.203Z,0.79
2019-01-13T03:47:12.468Z,0.80
2019-01-13T03:49:43.693Z,0.89
2019-01-13T03:52:14.991Z,0.91
2019-01-13T03:54:46.259Z,0.95
2019-01-13T03:57:17.435Z,0.98
2019-01-13T03:59:48.670Z,0.90
2019-01-13T04:02:20.041Z,0.93
2019-01-13T04:04:51.269Z,0.97
2019-01-13T04:07:22.615Z,0.89
2019-01-13T04:09:53.909Z,0.85
2019-01-13T04:12:25.080Z,0.92
2019-01-13T04:14:56.255Z,1.07
2019-01-13T04:17:28.405Z,1.01
2019-01-13T04:19:59.746Z,1.01
2019-01-13T04:22:31.230Z,1.08
2019-01-13T04:25:02.340Z,1.12
2019-01-13T04:27:33.711Z,1.08
2019-01-13T04:30:05.958Z,1.13
2019-01-13T04:32:37.286Z,1.19
2019-01-13T04:35:09.271Z,1.26
2019-01-13T04:37:40.632Z,1.26
2019-01-13T04:40:11.943Z,1.24
2019-01-13T04:42:43.355Z,1.24
2019-01-13T04:45:14.780Z,1.26
2019-01-13T04:47:45.910Z,1.29
2019-01-13T04:50:17.283Z,1.25
2019-01-13T04:52:48.580Z,1.22
2019-01-13T04:55:19.829Z,1.20
2019-01-13T04:57:51.138Z,1.19
2019-01-13T05:00:22.448Z,1.18
2019-01-13T05:02:53.824Z,1.18
2019-01-13T05:05:24.937Z,1.19
2019-01-13T05:07:56.297Z,1.09
2019-01-13T05:10:29.741Z,1.12
2019-01-13T05:13:01.018Z,1.09
2019-01-13T05:15:32.349Z,1.24
2019-01-13T05:18:03.686Z,1.24
2019-01-13T05:20:35.114Z,1.08
2019-01-13T05:23:06.315Z,1.10
2019-01-13T05:25:37.510Z,1.13
2019-01-13T05:28:08.698Z,1.24
2019-01-13T05:30:40.043Z,1.08
2019-01-13T05:33:11.444Z,1.10
2019-01-13T05:35:42.690Z,1.13
2019-01-13T05:38:13.933Z,1.14
2019-01-13T05:40:45.180Z,1.12
2019-01-13T05:43:16.295Z,1.06
2019-01-13T05:45:47.481Z,0.99
2019-01-13T05:48:18.669Z,0.97
2019-01-13T05:50:50.017Z,0.92
2019-01-13T05:53:21.341Z,0.85
2019-01-13T05:55:52.466Z,0.89
2019-01-13T05:58:24.742Z,0.99
2019-01-13T06:00:55.837Z,0.99
2019-01-13T06:03:27.214Z,0.99
2019-01-13T06:05:58.538Z,1.01
2019-01-13T06:08:29.790Z,0.96
2019-01-13T06:11:01.120Z,0.90
2019-01-13T06:13:32.372Z,0.84
2019-01-13T06:16:04.004Z,0.86
2019-01-13T06:18:35.304Z,0.86
2019-01-13T06:21:06.574Z,0.91
2019-01-13T06:23:37.870Z,0.81
2019-01-13T06:26:09.141Z,0.92
2019-01-13T06:28:40.415Z,0.99
2019-01-13T06:31:11.538Z,1.07
2019-01-13T06:33:42.945Z,1.18
2019-01-13T06:36:14.422Z,1.26
2019-01-13T06:38:45.549Z,1.26
2019-01-13T06:41:16.825Z,1.33
2019-01-13T06:43:48.124Z,1.42
2019-01-13T06:46:19.616Z,1.53
2019-01-13T06:48:50.852Z,1.68
2019-01-13T06:51:22.084Z,1.69
2019-01-13T06:53:53.429Z,1.45
2019-01-13T06:56:24.806Z,1.46
2019-01-13T06:58:56.217Z,1.62
2019-01-13T07:01:27.409Z,1.62
2019-01-13T07:03:58.700Z,1.96
2019-01-13T07:06:30.005Z,1.96
2019-01-13T07:09:01.252Z,2.12
2019-01-13T07:11:32.537Z,2.19
2019-01-13T07:14:03.723Z,2.30
2019-01-13T07:16:37.216Z,2.30
2019-01-13T07:19:08.467Z,2.31
2019-01-13T07:21:39.678Z,2.17
2019-01-13T07:24:11.053Z,2.17
2019-01-13T07:26:42.312Z,2.21
2019-01-13T07:29:13.512Z,2.38
2019-01-13T07:31:44.782Z,2.15
2019-01-13T07:34:16.088Z,2.01
2019-01-13T07:36:47.455Z,2.16
2019-01-13T07:39:18.585Z,2.13
2019-01-13T07:41:49.801Z,2.10
2019-01-13T07:44:21.034Z,1.94
2019-01-13T07:46:52.452Z,1.97
2019-01-13T07:49:23.630Z,2.27
2019-01-13T07:51:56.513Z,2.27
2019-01-13T07:54:30.246Z,2.38
2019-01-13T07:57:02.785Z,2.42
2019-01-13T07:59:35.835Z,2.42
2019-01-13T08:02:07.234Z,2.78
2019-01-13T08:04:38.469Z,3.08
2019-01-13T08:07:09.768Z,3.26
2019-01-13T08:09:41.041Z,3.37
2019-01-13T08:12:12.312Z,3.37
2019-01-13T08:14:43.466Z,3.44
2019-01-13T08:17:14.870Z,3.73
2019-01-13T08:19:46.080Z,3.96
2019-01-13T08:22:17.381Z,4.35
2019-01-13T08:24:48.822Z,4.35
2019-01-13T08:27:20.153Z,4.57
2019-01-13T08:29:51.431Z,4.52
2019-01-13T08:32:25.099Z,4.54
2019-01-13T08:34:55.490Z,4.54
2019-01-13T08:37:26.706Z,4.45
2019-01-13T08:39:57.897Z,4.13
2019-01-13T08:42:29.111Z,4.13
2019-01-13T08:45:00.450Z,4.13
2019-01-13T08:47:31.537Z,4.13
2019-01-13T08:50:03.028Z,4.22
2019-01-13T08:52:34.525Z,3.84
2019-01-13T08:55:06.780Z,4.12
2019-01-13T08:57:38.080Z,4.12
2019-01-13T09:00:31.551Z,4.69
2019-01-13T09:03:03.936Z,4.69
2019-01-13T09:05:35.272Z,4.80
2019-01-13T09:08:07.597Z,4.91
2019-01-13T09:10:39.056Z,4.86
2019-01-13T09:13:10.264Z,4.42
2019-01-13T09:15:41.641Z,4.38
2019-01-13T09:18:13.226Z,4.38
2019-01-13T09:20:44.366Z,4.57
2019-01-13T09:23:15.669Z,4.72
2019-01-13T09:25:46.911Z,4.75
2019-01-13T09:28:18.231Z,4.75
2019-01-13T09:30:49.456Z,5.56
2019-01-13T09:33:20.752Z,6.21
2019-01-13T09:35:52.138Z,6.58
2019-01-13T09:38:23.385Z,6.76
2019-01-13T09:40:55.632Z,6.97
2019-01-13T09:43:26.937Z,7.37
2019-01-13T09:45:58.102Z,8.03
2019-01-13T09:48:29.424Z,8.75
2019-01-13T09:51:00.797Z,8.75
2019-01-13T09:53:31.937Z,9.25
2019-01-13T09:56:04.310Z,8.69
2019-01-13T09:58:35.490Z,8.86
2019-01-13T10:01:06.817Z,8.59
2019-01-13T10:03:38.025Z,8.38
2019-01-13T10:06:10.133Z,9.34
2019-01-13T10:08:41.459Z,10.10
2019-01-13T10:11:12.590Z,11.36
2019-01-13T10:14:28.119Z,12.27
2019-01-13T10:20:26.925Z,16.84
2019-01-13T10:25:46.324Z,19.23
2019-01-13T10:28:17.768Z,19.56
2019-01-13T10:30:49.182Z,19.82
2019-01-13T10:33:20.430Z,19.88
2019-01-13T10:35:51.795Z,19.63
2019-01-13T10:38:23.000Z,18.75
2019-01-13T10:40:54.438Z,16.12
2019-01-13T10:43:26.615Z,15.45
2019-01-13T10:45:57.963Z,14.30
2019-01-13T10:48:30.417Z,14.25
2019-01-13T10:51:01.798Z,14.40
2019-01-13T10:53:34.195Z,15.21
2019-01-13T10:56:05.530Z,16.37
2019-01-13T10:58:36.721Z,17.31
2019-01-13T11:01:07.831Z,18.21
2019-01-13T11:03:39.128Z,19.10
2019-01-13T11:06:10.466Z,19.91
2019-01-13T11:08:41.678Z,18.35
2019-01-13T11:11:12.790Z,17.43
2019-01-13T11:13:43.946Z,17.26
2019-01-13T11:16:15.314Z,16.56
2019-01-13T11:18:46.544Z,16.93
2019-01-13T11:21:17.867Z,16.56
2019-01-13T11:23:49.022Z,16.27
2019-01-13T11:26:20.196Z,16.54
2019-01-13T11:28:51.482Z,16.74
2019-01-13T11:31:22.822Z,16.98
2019-01-13T11:33:54.112Z,16.68
2019-01-13T11:36:25.344Z,16.77
2019-01-13T11:38:56.784Z,16.64
2019-01-13T11:41:27.925Z,15.93
2019-01-13T11:43:59.169Z,15.45
2019-01-13T11:46:30.604Z,14.62
2019-01-13T11:49:01.860Z,13.77
2019-01-13T11:51:32.977Z,13.25
2019-01-13T11:54:04.287Z,12.35
2019-01-13T11:56:35.636Z,11.75
2019-01-13T11:59:06.928Z,10.88
2019-01-13T12:01:38.163Z,10.28
2019-01-13T12:04:09.479Z,9.72
2019-01-13T12:06:40.691Z,9.63
2019-01-13T12:09:11.850Z,9.18
2019-01-13T12:11:43.072Z,8.73
2019-01-13T12:14:14.457Z,8.54
2019-01-13T12:16:45.810Z,8.39
2019-01-13T12:19:16.945Z,8.46
2019-01-13T12:21:48.259Z,8.46
2019-01-13T12:24:19.626Z,8.22
2019-01-13T12:26:51.000Z,7.97
2019-01-13T12:29:22.193Z,7.75
2019-01-13T12:31:53.301Z,7.63
2019-01-13T12:34:24.746Z,7.63
2019-01-13T12:36:56.030Z,8.03
2019-01-13T12:39:27.313Z,8.03
2019-01-13T12:41:58.533Z,8.05
2019-01-13T12:44:29.767Z,7.89
2019-01-13T12:47:01.306Z,7.89
2019-01-13T12:49:32.698Z,7.75
2019-01-13T12:52:04.021Z,7.60
2019-01-13T12:54:35.190Z,7.65
2019-01-13T12:57:06.249Z,7.77
2019-01-13T12:59:37.607Z,7.71
2019-01-13T13:02:08.998Z,7.71
2019-01-13T13:04:40.339Z,7.76
2019-01-13T13:07:11.542Z,7.36
2019-01-13T13:09:42.793Z,7.00
2019-01-13T13:12:13.796Z,6.79
2019-01-13T13:14:44.903Z,6.88
2019-01-13T13:17:16.131Z,6.61
2019-01-13T13:19:47.409Z,6.53
2019-01-13T13:22:18.557Z,6.45
2019-01-13T13:24:49.848Z,6.27
2019-01-13T13:27:21.137Z,6.30
2019-01-13T13:29:52.575Z,6.23
2019-01-13T13:32:23.863Z,6.36
2019-01-13T13:34:55.850Z,6.20
2019-01-13T13:37:27.036Z,5.95
2019-01-13T13:39:58.256Z,5.77
2019-01-13T13:42:30.660Z,5.81
2019-01-13T13:45:03.026Z,5.64
2019-01-13T13:47:34.354Z,5.65
2019-01-13T13:50:07.884Z,5.60
2019-01-13T13:52:39.342Z,5.72
2019-01-13T13:55:11.294Z,5.83
2019-01-13T13:57:42.777Z,5.97
2019-01-13T14:00:20.547Z,5.98
2019-01-13T14:02:51.959Z,6.14
2019-01-13T14:05:24.610Z,6.25
2019-01-13T14:07:57.152Z,6.27
2019-01-13T14:10:39.914Z,6.31
2019-01-13T14:13:11.286Z,6.19
2019-01-13T14:15:42.681Z,6.11
2019-01-13T14:18:15.994Z,6.10
2019-01-13T14:20:47.226Z,6.10
2019-01-13T14:23:18.504Z,6.00
2019-01-13T14:25:49.818Z,5.88
2019-01-13T14:28:21.157Z,5.72
2019-01-13T14:30:52.468Z,5.62
2019-01-13T14:33:25.347Z,5.65
2019-01-13T14:35:56.809Z,5.55
2019-01-13T14:38:28.083Z,5.43
2019-01-13T14:40:59.677Z,5.49
2019-01-13T14:43:30.825Z,5.46
2019-01-13T14:46:02.293Z,5.45
2019-01-13T14:48:33.784Z,5.41
2019-01-13T14:51:05.255Z,5.31
2019-01-13T14:53:36.602Z,5.37
2019-01-13T14:56:07.909Z,5.37
2019-01-13T14:58:39.124Z,5.27
2019-01-13T15:01:10.684Z,5.03
2019-01-13T15:03:41.898Z,5.03
2019-01-13T15:06:13.087Z,5.03
2019-01-13T15:08:44.356Z,4.91
2019-01-13T15:11:15.808Z,4.93
2019-01-13T15:13:47.034Z,4.92
2019-01-13T15:16:18.323Z,4.90
2019-01-13T15:18:49.430Z,4.83
2019-01-13T15:21:20.833Z,4.67
2019-01-13T15:23:52.092Z,4.67
2019-01-13T15:26:23.290Z,4.54
2019-01-13T15:28:54.678Z,4.08
2019-01-13T15:31:25.986Z,4.08
2019-01-13T15:33:57.610Z,4.01
2019-01-13T15:36:28.961Z,4.03
2019-01-13T15:39:00.234Z,3.94
2019-01-13T15:41:31.571Z,3.90
2019-01-13T15:44:02.699Z,3.91
2019-01-13T15:46:34.089Z,3.91
2019-01-13T15:49:05.590Z,3.68
2019-01-13T15:51:36.943Z,3.68
2019-01-13T15:54:08.418Z,3.66
2019-01-13T15:56:39.684Z,3.60
2019-01-13T15:59:10.993Z,3.65
2019-01-13T16:01:42.406Z,3.65
2019-01-13T16:04:14.751Z,3.77
2019-01-13T16:06:46.141Z,3.77
2019-01-13T16:09:17.437Z,3.82
2019-01-13T16:11:48.666Z,3.79
2019-01-13T16:14:20.117Z,3.75
2019-01-13T16:16:51.312Z,3.75
2019-01-13T16:19:22.373Z,3.72
2019-01-13T16:21:53.823Z,3.72
2019-01-13T16:24:25.149Z,3.91
2019-01-13T16:26:56.354Z,3.97
2019-01-13T16:29:27.755Z,3.95
2019-01-13T16:31:58.945Z,3.95
2019-01-13T16:34:30.201Z,3.97
2019-01-13T16:37:01.483Z,4.10
2019-01-13T16:39:32.696Z,4.09
2019-01-13T16:42:04.121Z,4.08
2019-01-13T16:44:35.163Z,3.94
2019-01-13T16:47:08.657Z,4.10
2019-01-13T16:49:40.030Z,4.10
2019-01-13T16:52:11.533Z,4.06
2019-01-13T16:54:42.910Z,4.06
2019-01-13T16:57:14.370Z,3.76
2019-01-13T16:59:45.796Z,3.75
2019-01-13T17:02:17.080Z,3.49
2019-01-13T17:04:48.316Z,3.49
2019-01-13T17:07:19.603Z,3.65
2019-01-13T17:09:50.899Z,3.72
2019-01-13T17:12:22.037Z,3.77
2019-01-13T17:14:53.215Z,3.80
2019-01-13T17:17:24.532Z,3.80
2019-01-13T17:19:55.742Z,3.82
2019-01-13T17:22:27.046Z,3.82
2019-01-13T17:24:58.205Z,3.90
2019-01-13T17:27:29.476Z,4.05
2019-01-13T17:30:00.742Z,4.05
2019-01-13T17:32:32.026Z,4.06
2019-01-13T17:35:03.416Z,4.10
2019-01-13T17:37:34.764Z,4.18
2019-01-13T17:40:07.525Z,4.27
2019-01-13T17:42:39.032Z,4.27
2019-01-13T17:45:13.071Z,4.28
2019-01-13T17:47:44.593Z,4.15
2019-01-13T17:50:17.618Z,4.22
2019-01-13T17:52:48.946Z,4.26
2019-01-13T17:55:24.671Z,4.24
2019-01-13T17:57:55.994Z,4.20
2019-01-13T18:00:35.728Z,4.18
2019-01-13T18:03:07.615Z,4.19
2019-01-13T18:05:38.956Z,4.05
2019-01-13T18:08:10.025Z,4.05
2019-01-13T18:10:41.178Z,3.95
2019-01-13T18:13:12.591Z,4.08
2019-01-13T18:15:44.012Z,4.08
2019-01-13T18:18:15.282Z,4.03
2019-01-13T18:20:46.296Z,3.99
2019-01-13T18:23:17.480Z,4.06
2019-01-13T18:25:48.821Z,4.06
2019-01-13T18:28:20.178Z,4.12
2019-01-13T18:30:51.586Z,4.05
2019-01-13T18:33:22.779Z,3.90
2019-01-13T18:35:54.128Z,3.90
2019-01-13T18:38:25.673Z,3.70
2019-01-13T18:40:56.932Z,3.70
2019-01-13T18:43:28.264Z,3.82
2019-01-13T18:45:59.600Z,3.73
2019-01-13T18:48:31.034Z,3.77
2019-01-13T18:51:02.379Z,3.77
2019-01-13T18:53:33.769Z,3.74
2019-01-13T18:56:05.243Z,3.71
2019-01-13T18:58:36.402Z,3.77
2019-01-13T19:01:07.859Z,3.73
2019-01-13T19:03:39.104Z,3.67
2019-01-13T19:06:12.846Z,3.64
2019-01-13T19:08:44.343Z,3.56
2019-01-13T19:11:31.022Z,3.53
2019-01-13T19:14:20.218Z,3.46
2019-01-13T19:17:00.871Z,3.39
2019-01-13T19:19:42.028Z,3.39
2019-01-13T19:22:13.179Z,3.21
2019-01-13T19:24:44.526Z,3.30
2019-01-13T19:27:15.845Z,3.34
2019-01-13T19:29:46.940Z,3.19
2019-01-13T19:32:18.162Z,3.29
2019-01-13T19:34:49.475Z,3.10
2019-01-13T19:37:20.910Z,2.89
2019-01-13T19:39:52.225Z,2.99
2019-01-13T19:42:24.246Z,3.04
2019-01-13T19:44:55.540Z,3.06
2019-01-13T19:47:26.832Z,3.12
2019-01-13T19:49:58.061Z,3.11
2019-01-13T19:52:29.366Z,3.16
2019-01-13T19:55:00.689Z,3.15
2019-01-13T19:57:32.002Z,3.04
2019-01-13T20:00:03.213Z,3.04
2019-01-13T20:02:34.650Z,3.01
2019-01-13T20:05:11.772Z,3.01
2019-01-13T20:07:39.629Z,2.94
2019-01-13T20:10:11.083Z,2.76
2019-01-13T20:12:42.218Z,2.84
2019-01-13T20:15:14.365Z,2.65
2019-01-13T20:17:45.550Z,2.65
2019-01-13T20:20:17.373Z,2.59
2019-01-13T20:22:48.521Z,2.51
2019-01-13T20:25:19.844Z,2.47
2019-01-13T20:27:52.775Z,2.42
2019-01-13T20:30:26.525Z,2.33
2019-01-13T20:32:58.129Z,2.31
2019-01-13T20:35:30.620Z,2.31
2019-01-13T20:38:02.083Z,2.18
2019-01-13T20:40:33.601Z,2.07
2019-01-13T20:43:05.289Z,2.07
2019-01-13T20:45:39.568Z,2.02
2019-01-13T20:48:10.814Z,2.03
2019-01-13T20:50:42.130Z,1.91
2019-01-13T20:53:13.675Z,1.91
2019-01-13T20:55:45.135Z,1.80
2019-01-13T20:58:17.507Z,1.80
2019-01-13T21:00:49.198Z,1.79
2019-01-13T21:03:20.703Z,1.75
2019-01-13T21:05:52.264Z,1.62
2019-01-13T21:08:23.652Z,1.57
2019-01-13T21:10:55.077Z,1.57
2019-01-13T21:13:26.242Z,1.57
2019-01-13T21:15:58.499Z,1.48
2019-01-13T21:18:29.807Z,1.46
2019-01-13T21:21:01.173Z,1.54
2019-01-13T21:23:32.229Z,1.46
2019-01-13T21:26:03.563Z,1.38
2019-01-13T21:28:34.846Z,1.40
2019-01-13T21:31:06.217Z,1.41
2019-01-13T21:33:37.594Z,1.46
2019-01-13T21:36:08.779Z,1.45
2019-01-13T21:38:40.104Z,1.41
2019-01-13T21:41:11.391Z,1.36
2019-01-13T21:43:42.592Z,1.33
2019-01-13T21:46:14.997Z,1.34
2019-01-13T21:48:46.187Z,1.35
2019-01-13T21:51:17.367Z,1.16
2019-01-13T21:53:48.621Z,1.11
2019-01-13T21:56:19.809Z,1.00
2019-01-13T21:58:51.023Z,0.97
2019-01-13T22:01:22.378Z,0.95
2019-01-13T22:03:53.603Z,0.92
2019-01-13T22:06:24.864Z,0.93
2019-01-13T22:08:56.432Z,0.91
2019-01-13T22:11:27.892Z,0.95
2019-01-13T22:13:59.168Z,0.82
2019-01-13T22:16:30.762Z,0.70
2019-01-13T22:19:02.250Z,0.54
2019-01-13T22:21:33.440Z,0.58
2019-01-13T22:24:05.859Z,0.58
2019-01-13T22:26:37.117Z,0.56
2019-01-13T22:29:08.381Z,0.54
2019-01-13T22:31:39.725Z,0.44
2019-01-13T22:34:11.096Z,0.38
2019-01-13T22:36:42.355Z,0.35
2019-01-13T22:39:13.775Z,0.31
2019-01-13T22:41:45.277Z,0.36
2019-01-13T22:44:16.557Z,0.29
2019-01-13T22:46:48.039Z,0.34
2019-01-13T22:49:19.237Z,0.34
2019-01-13T22:51:50.606Z,0.40
2019-01-13T22:54:21.854Z,0.40
2019-01-13T22:56:53.224Z,0.32
2019-01-13T22:59:24.334Z,-0.17
2019-01-13T23:01:55.740Z,-0.27
2019-01-13T23:04:27.002Z,-0.31
2019-01-13T23:06:58.387Z,-0.21
2019-01-13T23:09:29.438Z,-0.32
2019-01-13T23:12:00.752Z,-0.46
2019-01-13T23:14:32.218Z,-0.25
2019-01-13T23:17:03.463Z,-0.17
2019-01-13T23:19:34.698Z,-0.10
2019-01-13T23:22:06.082Z,-0.01
2019-01-13T23:24:37.310Z,0.01
2019-01-13T23:27:08.574Z,-0.17
2019-01-13T23:29:39.833Z,-0.08
2019-01-13T23:32:11.249Z,-0.08
2019-01-13T23:34:42.559Z,-0.24
2019-01-13T23:37:13.758Z,-0.21
2019-01-13T23:39:44.990Z,-0.20
2019-01-13T23:42:16.381Z,-0.20
2019-01-13T23:44:47.575Z,-0.25
2019-01-13T23:47:18.890Z,-0.33
2019-01-13T23:49:50.138Z,-0.32
2019-01-13T23:52:21.336Z,-0.41
2019-01-13T23:54:52.561Z,-0.35
2019-01-13T23:57:23.826Z,-0.29
2019-01-13T23:59:55.389Z,-0.22
